createdAt,value
2018-07-31T07:13:47.617Z,70.07
2018-07-31T07:14:42.955Z,70.32
2018-07-31T07:15:42.912Z,70.65
2018-07-31T07:16:42.826Z,70.65
2018-07-31T07:17:42.745Z,69.87
2018-07-31T07:18:42.701Z,70.01
2018-07-31T07:19:42.625Z,69.23
2018-07-31T07:20:42.564Z,69.32
2018-07-31T07:21:42.501Z,69.32
2018-07-31T07:22:42.467Z,69.62
2018-07-31T07:23:42.368Z,68.84
2018-07-31T07:24:42.315Z,69.42
2018-07-31T07:25:42.249Z,69.23
2018-07-31T07:26:42.183Z,69.13
2018-07-31T07:27:42.130Z,68.93
2018-07-31T07:28:42.068Z,69.36
2018-07-31T07:29:41.995Z,69.56
2018-07-31T07:30:41.937Z,69.17
2018-07-31T07:31:41.871Z,69.56
2018-07-31T07:32:41.812Z,69.17
2018-07-31T07:33:41.856Z,68.87
2018-07-31T07:34:41.700Z,69.56
2018-07-31T07:35:41.638Z,68.77
2018-07-31T07:36:41.572Z,68.90
2018-07-31T07:37:41.524Z,68.90
2018-07-31T07:38:41.452Z,69.00
2018-07-31T07:39:41.402Z,68.42
2018-07-31T07:40:41.333Z,68.03
2018-07-31T07:41:41.272Z,67.64
2018-07-31T07:42:41.224Z,68.23
2018-07-31T07:43:41.181Z,68.26
2018-07-31T07:44:41.113Z,68.13
2018-07-31T07:45:41.037Z,67.86
2018-07-31T07:46:40.990Z,67.67
2018-07-31T07:47:40.925Z,68.90
2018-07-31T07:48:40.871Z,68.71
2018-07-31T07:49:40.803Z,69.10
2018-07-31T07:50:40.750Z,69.29
2018-07-31T07:51:40.698Z,68.71
2018-07-31T07:52:40.642Z,68.80
2018-07-31T07:53:40.579Z,69.46
2018-07-31T07:54:40.523Z,69.65
2018-07-31T07:55:40.452Z,69.46
2018-07-31T07:56:40.408Z,69.29
2018-07-31T07:57:40.335Z,69.49
2018-07-31T07:58:40.274Z,69.88
2018-07-31T07:59:40.227Z,69.68
2018-07-31T08:00:40.166Z,69.68
2018-07-31T08:01:40.117Z,70.37
2018-07-31T08:02:40.050Z,70.17
2018-07-31T08:03:39.999Z,70.04
2018-07-31T08:04:39.929Z,69.84
2018-07-31T08:05:39.890Z,69.98
2018-07-31T08:06:39.858Z,70.37
2018-07-31T08:07:39.765Z,70.17
2018-07-31T08:08:39.700Z,70.07
2018-07-31T08:09:39.700Z,70.27
2018-07-31T08:10:39.590Z,69.78
2018-07-31T08:11:39.529Z,69.39
2018-07-31T08:12:39.489Z,68.94
2018-07-31T08:13:39.412Z,68.94
2018-07-31T08:14:39.360Z,68.77
2018-07-31T08:15:39.314Z,68.49
2018-07-31T08:16:39.239Z,68.29
2018-07-31T08:17:39.206Z,68.87
2018-07-31T08:18:39.136Z,68.77
2018-07-31T08:19:39.071Z,68.77
2018-07-31T08:20:39.014Z,68.77
2018-07-31T08:21:38.965Z,68.74
2018-07-31T08:22:38.929Z,69.04
2018-07-31T08:23:38.856Z,69.62
2018-07-31T08:24:38.788Z,69.78
2018-07-31T08:25:38.729Z,69.78
2018-07-31T08:26:38.668Z,70.47
2018-07-31T08:27:38.628Z,70.37
2018-07-31T08:28:38.568Z,69.59
2018-07-31T08:29:38.495Z,69.92
2018-07-31T08:30:38.435Z,69.72
2018-07-31T08:31:38.389Z,69.92
2018-07-31T08:32:38.322Z,70.01
2018-07-31T08:33:38.399Z,69.82
2018-07-31T08:34:38.219Z,69.92
2018-07-31T08:35:38.156Z,69.92
2018-07-31T08:36:38.098Z,69.62
2018-07-31T08:37:38.044Z,69.43
2018-07-31T08:38:37.978Z,69.53
2018-07-31T08:39:37.931Z,69.13
2018-07-31T08:40:37.882Z,68.97
2018-07-31T08:41:37.812Z,69.07
2018-07-31T08:42:37.756Z,69.13
2018-07-31T08:43:37.693Z,69.65
2018-07-31T08:44:37.627Z,68.97
2018-07-31T08:45:37.578Z,69.07
2018-07-31T08:46:37.540Z,68.97
2018-07-31T08:47:37.471Z,69.13
2018-07-31T08:48:37.408Z,69.33
2018-07-31T08:49:37.364Z,69.36
2018-07-31T08:50:37.303Z,70.31
2018-07-31T08:51:37.232Z,70.40
2018-07-31T08:52:37.187Z,69.75
2018-07-31T08:53:37.120Z,69.36
2018-07-31T08:54:37.062Z,69.26
2018-07-31T08:55:37.061Z,69.36
2018-07-31T08:56:36.967Z,69.07
2018-07-31T08:57:36.891Z,69.36
2018-07-31T08:58:36.838Z,68.77
2018-07-31T08:59:36.782Z,69.01
2018-07-31T09:00:36.731Z,68.32
2018-07-31T09:01:36.676Z,68.13
2018-07-31T09:02:36.609Z,67.77
2018-07-31T09:03:36.561Z,68.13
2018-07-31T09:04:36.509Z,68.13
2018-07-31T09:05:36.480Z,67.97
2018-07-31T09:06:36.382Z,68.55
2018-07-31T09:07:36.325Z,68.03
2018-07-31T09:08:36.360Z,68.13
2018-07-31T09:09:36.218Z,69.17
2018-07-31T09:10:36.157Z,69.30
2018-07-31T09:11:36.109Z,68.81
2018-07-31T09:12:36.044Z,69.10
2018-07-31T09:13:35.987Z,69.07
2018-07-31T09:14:35.926Z,69.36
2018-07-31T09:15:35.883Z,69.07
2018-07-31T09:16:35.820Z,68.71
2018-07-31T09:17:35.829Z,69.10
2018-07-31T09:18:35.696Z,68.81
2018-07-31T09:19:35.652Z,68.42
2018-07-31T09:20:35.594Z,69.10
2018-07-31T09:21:35.534Z,69.10
2018-07-31T09:22:35.524Z,69.10
2018-07-31T09:23:35.429Z,68.81
2018-07-31T09:24:35.474Z,68.81
2018-07-31T09:25:35.303Z,67.93
2018-07-31T09:26:35.260Z,67.87
2018-07-31T09:27:35.192Z,67.77
2018-07-31T09:28:35.131Z,67.87
2018-07-31T09:29:35.070Z,67.38
2018-07-31T09:30:35.092Z,67.19
2018-07-31T09:31:34.966Z,67.68
2018-07-31T09:32:34.911Z,67.77
2018-07-31T09:33:34.850Z,67.87
2018-07-31T09:34:34.797Z,67.58
2018-07-31T09:35:34.749Z,67.58
2018-07-31T09:36:34.706Z,67.77
2018-07-31T09:37:34.629Z,67.19
2018-07-31T09:38:34.569Z,67.19
2018-07-31T09:39:34.502Z,67.09
2018-07-31T09:40:34.448Z,66.73
2018-07-31T09:41:34.390Z,66.05
2018-07-31T09:42:34.354Z,66.44
2018-07-31T09:43:34.283Z,66.44
2018-07-31T09:44:34.228Z,65.85
2018-07-31T09:45:34.225Z,66.44
2018-07-31T09:46:34.108Z,66.44
2018-07-31T09:47:34.065Z,66.24
2018-07-31T09:48:34.014Z,67.29
2018-07-31T09:49:33.949Z,66.80
2018-07-31T09:50:33.943Z,67.09
2018-07-31T09:51:33.837Z,66.89
2018-07-31T09:52:33.783Z,66.70
2018-07-31T09:53:33.716Z,67.29
2018-07-31T09:54:33.688Z,67.19
2018-07-31T09:55:33.605Z,67.87
2018-07-31T09:56:33.553Z,66.80
2018-07-31T09:57:33.497Z,66.99
2018-07-31T09:58:33.436Z,67.09
2018-07-31T09:59:33.392Z,66.89
2018-07-31T10:00:33.336Z,67.09
2018-07-31T10:01:33.263Z,66.89
2018-07-31T10:02:33.216Z,67.19
2018-07-31T10:03:33.148Z,67.48
2018-07-31T10:04:33.093Z,67.32
2018-07-31T10:05:33.046Z,66.63
2018-07-31T10:06:32.994Z,66.53
2018-07-31T10:07:32.930Z,66.44
2018-07-31T10:08:32.879Z,66.44
2018-07-31T10:09:32.816Z,66.24
2018-07-31T10:10:32.757Z,65.46
2018-07-31T10:11:32.697Z,65.88
2018-07-31T10:12:32.635Z,64.78
2018-07-31T10:13:32.596Z,65.75
2018-07-31T10:14:32.542Z,65.78
2018-07-31T10:15:32.487Z,65.95
2018-07-31T10:16:32.437Z,65.00
2018-07-31T10:17:32.400Z,65.00
2018-07-31T10:18:32.314Z,65.00
2018-07-31T10:19:32.247Z,65.98
2018-07-31T10:20:32.193Z,66.24
2018-07-31T10:21:32.138Z,66.17
2018-07-31T10:22:32.083Z,65.78
2018-07-31T10:23:32.031Z,65.30
2018-07-31T10:24:31.991Z,65.00
2018-07-31T10:25:31.931Z,64.90
2018-07-31T10:26:31.869Z,65.49
2018-07-31T10:27:31.813Z,64.90
2018-07-31T10:28:31.739Z,65.20
2018-07-31T10:29:31.688Z,65.30
2018-07-31T10:30:31.678Z,65.59
2018-07-31T10:31:31.567Z,64.71
2018-07-31T10:32:31.538Z,64.90
2018-07-31T10:33:31.463Z,65.00
2018-07-31T10:34:31.402Z,64.97
2018-07-31T10:35:31.343Z,65.17
2018-07-31T10:36:31.287Z,65.85
2018-07-31T10:37:31.254Z,65.75
2018-07-31T10:38:31.171Z,64.87
2018-07-31T10:39:31.133Z,64.97
2018-07-31T10:40:31.071Z,65.10
2018-07-31T10:41:31.019Z,64.81
2018-07-31T10:42:30.941Z,65.39
2018-07-31T10:43:30.898Z,64.90
2018-07-31T10:44:30.838Z,64.87
2018-07-31T10:45:30.781Z,65.17
2018-07-31T10:46:30.731Z,64.90
2018-07-31T10:47:30.676Z,65.07
2018-07-31T10:48:30.623Z,65.39
2018-07-31T10:49:30.568Z,64.51
2018-07-31T10:50:30.522Z,64.51
2018-07-31T10:51:30.437Z,65.00
2018-07-31T10:52:30.397Z,64.32
2018-07-31T10:53:30.345Z,64.74
2018-07-31T10:54:30.270Z,64.06
2018-07-31T10:55:30.224Z,64.06
2018-07-31T10:56:30.164Z,64.45
2018-07-31T10:57:30.107Z,64.25
2018-07-31T10:58:30.160Z,64.54
2018-07-31T10:59:30.004Z,64.71
2018-07-31T11:00:29.932Z,64.42
2018-07-31T11:01:29.891Z,64.51
2018-07-31T11:02:29.822Z,64.51
2018-07-31T11:03:29.774Z,64.12
2018-07-31T11:04:29.725Z,64.03
2018-07-31T11:05:29.669Z,63.93
2018-07-31T11:06:29.643Z,63.64
2018-07-31T11:07:29.545Z,63.67
2018-07-31T11:08:29.512Z,64.06
2018-07-31T11:09:29.456Z,63.28
2018-07-31T11:10:29.408Z,63.28
2018-07-31T11:11:29.327Z,63.31
2018-07-31T11:12:29.248Z,64.09
2018-07-31T11:13:29.196Z,63.79
2018-07-31T11:14:29.143Z,63.31
2018-07-31T11:15:29.095Z,62.03
2018-07-31T11:16:29.022Z,62.42
2018-07-31T11:17:28.972Z,62.32
2018-07-31T11:18:28.916Z,62.62
2018-07-31T11:19:28.864Z,62.23
2018-07-31T11:20:28.809Z,62.82
2018-07-31T11:21:28.752Z,62.72
2018-07-31T11:22:28.709Z,63.01
2018-07-31T11:23:28.641Z,63.70
2018-07-31T11:24:28.592Z,62.82
2018-07-31T11:25:28.545Z,62.82
2018-07-31T11:26:28.469Z,61.93
2018-07-31T11:27:28.481Z,62.13
2018-07-31T11:28:28.560Z,61.74
2018-07-31T11:29:28.317Z,61.93
2018-07-31T11:30:28.240Z,61.74
2018-07-31T11:31:28.191Z,62.03
2018-07-31T11:32:28.134Z,61.83
2018-07-31T11:33:28.079Z,61.93
2018-07-31T11:34:28.030Z,61.74
2018-07-31T11:35:27.982Z,61.64
2018-07-31T11:36:27.916Z,61.83
2018-07-31T11:37:27.859Z,61.93
2018-07-31T11:38:27.812Z,61.25
2018-07-31T11:39:27.744Z,61.74
2018-07-31T11:40:27.694Z,62.03
2018-07-31T11:41:27.633Z,61.44
2018-07-31T11:42:27.564Z,61.67
2018-07-31T11:43:27.516Z,61.74
2018-07-31T11:44:27.460Z,62.03
2018-07-31T11:45:27.398Z,61.96
2018-07-31T11:46:27.340Z,62.16
2018-07-31T11:47:27.289Z,62.35
2018-07-31T11:48:27.240Z,61.38
2018-07-31T11:49:27.177Z,61.47
2018-07-31T11:50:27.150Z,62.16
2018-07-31T11:51:27.070Z,61.87
2018-07-31T11:52:27.022Z,61.47
2018-07-31T11:53:26.991Z,60.99
2018-07-31T11:54:26.899Z,60.89
2018-07-31T11:55:26.844Z,61.31
2018-07-31T11:56:26.787Z,61.18
2018-07-31T11:57:26.736Z,61.77
2018-07-31T11:58:26.668Z,60.99
2018-07-31T11:59:26.635Z,60.33
2018-07-31T12:00:26.571Z,61.51
2018-07-31T12:01:26.509Z,61.11
2018-07-31T12:02:26.449Z,60.92
2018-07-31T12:03:26.402Z,60.82
2018-07-31T12:04:26.346Z,60.72
2018-07-31T12:05:26.286Z,60.92
2018-07-31T12:06:26.248Z,60.82
2018-07-31T12:07:26.193Z,60.23
2018-07-31T12:08:26.114Z,60.92
2018-07-31T12:09:26.069Z,61.08
2018-07-31T12:10:26.012Z,60.82
2018-07-31T12:11:25.987Z,60.63
2018-07-31T12:12:25.911Z,60.13
2018-07-31T12:13:25.835Z,60.82
2018-07-31T12:14:25.786Z,60.72
2018-07-31T12:15:25.726Z,59.94
2018-07-31T12:16:25.661Z,59.84
2018-07-31T12:17:25.618Z,60.13
2018-07-31T12:18:25.547Z,60.03
2018-07-31T12:19:25.504Z,60.03
2018-07-31T12:20:25.439Z,59.74
2018-07-31T12:21:25.394Z,59.94
2018-07-31T12:22:25.332Z,59.84
2018-07-31T12:23:25.264Z,59.94
2018-07-31T12:24:25.245Z,59.84
2018-07-31T12:25:25.156Z,60.03
2018-07-31T12:26:25.109Z,59.84
2018-07-31T12:27:25.079Z,59.94
2018-07-31T12:28:24.998Z,59.45
2018-07-31T12:29:24.932Z,59.19
2018-07-31T12:30:24.903Z,59.28
2018-07-31T12:31:24.827Z,59.28
2018-07-31T12:32:24.768Z,59.06
2018-07-31T12:33:24.716Z,59.16
2018-07-31T12:34:24.650Z,58.98
2018-07-31T12:35:24.593Z,58.86
2018-07-31T12:36:24.540Z,58.86
2018-07-31T12:37:24.500Z,59.08
2018-07-31T12:38:24.461Z,59.48
2018-07-31T12:39:24.393Z,59.08
2018-07-31T12:40:24.316Z,59.87
2018-07-31T12:41:24.277Z,58.89
2018-07-31T12:42:24.199Z,59.08
2018-07-31T12:43:24.148Z,58.89
2018-07-31T12:44:24.090Z,59.08
2018-07-31T12:45:24.039Z,58.89
2018-07-31T12:46:23.982Z,59.08
2018-07-31T12:47:23.934Z,59.08
2018-07-31T12:48:23.866Z,59.19
2018-07-31T12:49:23.810Z,58.89
2018-07-31T12:50:23.776Z,59.28
2018-07-31T12:51:23.696Z,58.98
2018-07-31T12:52:23.688Z,58.98
2018-07-31T12:53:23.575Z,58.69
2018-07-31T12:54:23.528Z,58.89
2018-07-31T12:55:23.480Z,58.98
2018-07-31T12:56:23.414Z,59.08
2018-07-31T12:57:23.357Z,58.79
2018-07-31T12:58:23.332Z,59.08
2018-07-31T12:59:23.247Z,58.69
2018-07-31T13:00:23.199Z,58.98
2018-07-31T13:01:23.163Z,58.89
2018-07-31T13:02:23.084Z,59.21
2018-07-31T13:03:23.020Z,58.79
2018-07-31T13:04:22.965Z,58.72
2018-07-31T13:05:22.908Z,58.69
2018-07-31T13:06:22.852Z,59.21
2018-07-31T13:07:22.804Z,58.50
2018-07-31T13:08:22.748Z,58.43
2018-07-31T13:09:22.686Z,58.30
2018-07-31T13:10:22.637Z,58.04
2018-07-31T13:11:22.582Z,57.74
2018-07-31T13:12:22.513Z,58.33
2018-07-31T13:13:22.575Z,58.33
2018-07-31T13:14:24.328Z,58.92
2018-07-31T13:15:22.348Z,58.62
2018-07-31T13:16:22.311Z,58.62
2018-07-31T13:17:22.231Z,58.43
2018-07-31T13:18:22.177Z,58.43
2018-07-31T13:19:22.130Z,58.89
2018-07-31T13:20:22.074Z,58.92
2018-07-31T13:21:22.017Z,59.01
2018-07-31T13:22:21.967Z,58.53
2018-07-31T13:23:21.896Z,59.11
2018-07-31T13:24:21.841Z,58.92
2018-07-31T13:25:21.807Z,59.31
2018-07-31T13:26:21.730Z,58.82
2018-07-31T13:27:21.700Z,58.92
2018-07-31T13:28:21.624Z,59.01
2018-07-31T13:29:21.566Z,58.72
2018-07-31T13:30:21.502Z,58.92
2018-07-31T13:31:21.457Z,58.53
2018-07-31T13:32:21.400Z,58.43
2018-07-31T13:33:21.341Z,58.53
2018-07-31T13:34:21.291Z,58.43
2018-07-31T13:35:21.239Z,58.92
2018-07-31T13:36:21.224Z,58.04
2018-07-31T13:37:21.123Z,57.74
2018-07-31T13:38:21.103Z,58.53
2018-07-31T13:39:21.018Z,58.23
2018-07-31T13:40:20.949Z,58.14
2018-07-31T13:41:20.900Z,58.16
2018-07-31T13:42:20.858Z,57.97
2018-07-31T13:43:20.776Z,57.57
2018-07-31T13:44:20.753Z,57.48
2018-07-31T13:45:20.672Z,57.08
2018-07-31T13:46:20.611Z,56.98
2018-07-31T13:47:20.567Z,56.98
2018-07-31T13:48:20.494Z,57.57
2018-07-31T13:49:20.438Z,57.87
2018-07-31T13:50:20.393Z,57.67
2018-07-31T13:51:20.333Z,57.67
2018-07-31T13:52:20.271Z,57.97
2018-07-31T13:53:20.210Z,57.57
2018-07-31T13:54:20.162Z,57.38
2018-07-31T13:55:20.141Z,57.28
2018-07-31T13:56:20.060Z,57.57
2018-07-31T13:57:19.995Z,57.77
2018-07-31T13:58:19.942Z,57.57
2018-07-31T13:59:19.899Z,56.98
2018-07-31T14:00:19.828Z,57.28
2018-07-31T14:01:19.779Z,57.38
2018-07-31T14:02:19.753Z,56.79
2018-07-31T14:03:19.654Z,57.18
2018-07-31T14:04:19.597Z,57.38
2018-07-31T14:05:19.558Z,57.50
2018-07-31T14:06:19.498Z,56.49
2018-07-31T14:07:19.438Z,56.20
2018-07-31T14:08:19.384Z,55.51
2018-07-31T14:09:19.327Z,54.66
2018-07-31T14:10:19.288Z,54.27
2018-07-31T14:11:19.228Z,54.73
2018-07-31T14:12:19.176Z,54.46
2018-07-31T14:13:19.108Z,55.22
2018-07-31T14:14:19.037Z,54.73
2018-07-31T14:15:18.997Z,54.83
2018-07-31T14:16:18.930Z,54.33
2018-07-31T14:17:18.872Z,54.66
2018-07-31T14:18:18.869Z,54.56
2018-07-31T14:19:18.769Z,54.33
2018-07-31T14:20:18.705Z,55.32
2018-07-31T14:21:18.658Z,55.12
2018-07-31T14:22:18.601Z,55.54
2018-07-31T14:23:18.535Z,55.02
2018-07-31T14:24:18.516Z,55.24
2018-07-31T14:25:18.421Z,55.44
2018-07-31T14:26:18.368Z,55.44
2018-07-31T14:27:18.353Z,55.05
2018-07-31T14:28:18.268Z,55.35
2018-07-31T14:29:18.200Z,55.24
2018-07-31T14:30:18.153Z,55.74
2018-07-31T14:31:18.091Z,55.54
2018-07-31T14:32:18.051Z,55.24
2018-07-31T14:33:17.981Z,54.44
2018-07-31T14:34:17.920Z,54.46
2018-07-31T14:35:17.859Z,54.17
2018-07-31T14:36:17.805Z,54.36
2018-07-31T14:37:17.751Z,53.97
2018-07-31T14:38:17.696Z,52.01
2018-07-31T14:39:17.659Z,52.69
2018-07-31T14:40:17.591Z,50.93
2018-07-31T14:41:17.532Z,50.14
2018-07-31T14:42:17.476Z,50.04
2018-07-31T14:43:17.411Z,51.03
2018-07-31T14:44:17.359Z,50.54
2018-07-31T14:45:17.314Z,50.63
2018-07-31T14:46:17.245Z,50.83
2018-07-31T14:47:17.192Z,52.01
2018-07-31T14:48:17.160Z,51.45
2018-07-31T14:49:17.077Z,50.83
2018-07-31T14:50:17.023Z,50.83
2018-07-31T14:51:17.002Z,51.03
2018-07-31T14:52:16.909Z,50.14
2018-07-31T14:53:16.859Z,50.44
2018-07-31T14:54:16.803Z,51.12
2018-07-31T14:55:16.740Z,50.93
2018-07-31T14:56:16.681Z,49.68
2018-07-31T14:57:16.640Z,49.55
2018-07-31T14:58:16.578Z,48.86
2018-07-31T14:59:16.531Z,49.95
2018-07-31T15:00:16.490Z,50.14
2018-07-31T15:01:16.421Z,50.14
2018-07-31T15:02:16.363Z,49.77
2018-07-31T15:03:16.293Z,48.40
2018-07-31T15:04:16.238Z,49.38
2018-07-31T15:05:16.197Z,49.58
2018-07-31T15:06:16.123Z,48.60
2018-07-31T15:07:16.080Z,47.79
2018-07-31T15:08:16.015Z,45.65
2018-07-31T15:09:15.959Z,45.16
2018-07-31T15:10:15.906Z,43.69
2018-07-31T15:11:15.995Z,40.64
2018-07-31T15:12:15.788Z,39.47
2018-07-31T15:13:15.730Z,40.16
2018-07-31T15:14:15.691Z,39.76
2018-07-31T15:15:15.629Z,41.43
2018-07-31T15:16:15.570Z,42.11
2018-07-31T15:17:15.519Z,43.49
2018-07-31T15:18:15.455Z,44.96
2018-07-31T15:19:15.429Z,46.04
2018-07-31T15:20:15.339Z,47.03
2018-07-31T15:21:15.337Z,45.55
2018-07-31T15:22:15.233Z,44.08
2018-07-31T15:23:15.190Z,44.18
2018-07-31T15:24:15.132Z,44.08
2018-07-31T15:25:15.076Z,44.57
2018-07-31T15:26:15.004Z,44.79
2018-07-31T15:27:14.956Z,43.32
2018-07-31T15:28:14.999Z,43.71
2018-07-31T15:29:14.851Z,43.41
2018-07-31T15:30:14.784Z,43.61
2018-07-31T15:31:14.734Z,44.59
2018-07-31T15:32:14.682Z,45.09
2018-07-31T15:33:14.639Z,44.98
2018-07-31T15:34:14.568Z,46.06
2018-07-31T15:35:14.523Z,46.06
2018-07-31T15:36:14.467Z,48.23
2018-07-31T15:37:14.398Z,47.15
2018-07-31T15:38:14.343Z,46.75
2018-07-31T15:39:14.301Z,47.34
2018-07-31T15:40:14.232Z,47.93
2018-07-31T15:41:14.181Z,48.33
2018-07-31T15:42:14.114Z,48.50
2018-07-31T15:43:14.068Z,48.72
2018-07-31T15:44:14.006Z,48.99
2018-07-31T15:45:13.946Z,48.11
2018-07-31T15:46:13.920Z,48.40
2018-07-31T15:47:13.832Z,48.50
2018-07-31T15:48:13.902Z,47.54
2018-07-31T15:49:13.729Z,48.89
2018-07-31T15:50:13.677Z,48.30
2018-07-31T15:51:13.611Z,47.91
2018-07-31T15:52:13.565Z,48.03
2018-07-31T15:53:13.496Z,48.99
2018-07-31T15:54:13.459Z,48.50
2018-07-31T15:55:13.394Z,48.60
2018-07-31T15:56:13.350Z,48.11
2018-07-31T15:57:13.287Z,48.30
2018-07-31T15:58:13.225Z,48.33
2018-07-31T15:59:13.177Z,47.71
2018-07-31T16:00:13.131Z,48.33
2018-07-31T16:01:13.098Z,48.21
2018-07-31T16:02:12.999Z,48.11
2018-07-31T16:03:12.960Z,48.89
2018-07-31T16:04:12.886Z,48.01
2018-07-31T16:05:12.847Z,48.21
2018-07-31T16:06:12.772Z,48.30
2018-07-31T16:07:12.728Z,48.21
2018-07-31T16:08:12.710Z,48.99
2018-07-31T16:09:12.621Z,48.89
2018-07-31T16:10:12.556Z,48.62
2018-07-31T16:11:12.508Z,48.11
2018-07-31T16:12:12.449Z,48.21
2018-07-31T16:13:12.393Z,48.21
2018-07-31T16:14:12.353Z,48.40
2018-07-31T16:15:12.295Z,47.71
2018-07-31T16:16:12.231Z,48.01
2018-07-31T16:17:12.175Z,48.40
2018-07-31T16:18:12.118Z,48.11
2018-07-31T16:19:12.059Z,48.11
2018-07-31T16:20:12.012Z,48.11
2018-07-31T16:21:11.952Z,48.30
2018-07-31T16:22:11.891Z,47.61
2018-07-31T16:23:11.893Z,47.71
2018-07-31T16:24:11.773Z,47.22
2018-07-31T16:25:11.721Z,47.81
2018-07-31T16:26:11.687Z,47.22
2018-07-31T16:27:11.626Z,47.22
2018-07-31T16:28:11.570Z,47.22
2018-07-31T16:29:11.495Z,47.25
2018-07-31T16:30:11.443Z,48.11
2018-07-31T16:31:11.394Z,48.30
2018-07-31T16:32:11.333Z,47.91
2018-07-31T16:33:11.313Z,47.91
2018-07-31T16:34:11.226Z,47.81
2018-07-31T16:35:11.165Z,47.52
2018-07-31T16:36:11.109Z,47.22
2018-07-31T16:37:11.064Z,47.22
2018-07-31T16:38:11.016Z,47.32
2018-07-31T16:39:10.953Z,46.83
2018-07-31T16:40:10.893Z,46.73
2018-07-31T16:41:10.853Z,46.93
2018-07-31T16:42:10.789Z,47.13
2018-07-31T16:43:10.722Z,47.13
2018-07-31T16:44:10.668Z,46.73
2018-07-31T16:45:10.608Z,47.32
2018-07-31T16:46:10.615Z,48.79
2018-07-31T16:47:10.509Z,48.11
2018-07-31T16:48:10.455Z,48.11
2018-07-31T16:49:10.569Z,46.93
2018-07-31T16:50:10.360Z,46.34
2018-07-31T16:51:10.274Z,47.32
2018-07-31T16:52:10.229Z,46.83
2018-07-31T16:53:10.167Z,48.11
2018-07-31T16:54:10.114Z,48.21
2018-07-31T16:55:10.072Z,47.71
2018-07-31T16:56:10.008Z,47.81
2018-07-31T16:57:09.944Z,48.11
2018-07-31T16:58:09.884Z,47.32
2018-07-31T16:59:09.842Z,47.42
2018-07-31T17:00:09.772Z,48.21
2018-07-31T17:01:09.713Z,46.83
2018-07-31T17:02:09.660Z,46.83
2018-07-31T17:03:09.621Z,48.11
2018-07-31T17:04:09.594Z,48.60
2018-07-31T17:05:09.493Z,48.01
2018-07-31T17:06:09.470Z,46.53
2018-07-31T17:07:09.389Z,46.93
2018-07-31T17:08:09.333Z,48.21
2018-07-31T17:09:09.272Z,48.69
2018-07-31T17:10:09.220Z,46.14
2018-07-31T17:11:09.157Z,46.24
2018-07-31T17:12:09.116Z,46.24
2018-07-31T17:13:09.051Z,48.01
2018-07-31T17:14:08.999Z,46.04
2018-07-31T17:15:08.950Z,46.34
2018-07-31T17:16:08.882Z,46.93
2018-07-31T17:17:08.845Z,45.95
2018-07-31T17:18:08.788Z,45.36
2018-07-31T17:19:08.720Z,44.57
2018-07-31T17:20:08.668Z,44.77
2018-07-31T17:21:08.608Z,45.06
2018-07-31T17:22:08.556Z,44.67
2018-07-31T17:23:08.494Z,46.63
2018-07-31T17:24:08.437Z,45.36
2018-07-31T17:25:08.397Z,45.16
2018-07-31T17:26:08.343Z,45.26
2018-07-31T17:27:08.286Z,45.45
2018-07-31T17:28:08.226Z,45.06
2018-07-31T17:29:08.161Z,45.95
2018-07-31T17:30:08.119Z,44.77
2018-07-31T17:31:08.063Z,45.06
2018-07-31T17:32:07.996Z,44.87
2018-07-31T17:33:07.963Z,44.57
2018-07-31T17:34:07.888Z,45.65
2018-07-31T17:35:07.826Z,46.14
2018-07-31T17:36:07.789Z,44.27
2018-07-31T17:37:07.730Z,45.45
2018-07-31T17:38:07.662Z,46.04
2018-07-31T17:39:07.607Z,44.57
2018-07-31T17:40:07.569Z,45.85
2018-07-31T17:41:07.504Z,46.14
2018-07-31T17:42:07.448Z,45.06
2018-07-31T17:43:07.391Z,44.87
2018-07-31T17:44:07.327Z,44.77
2018-07-31T17:45:07.276Z,44.47
2018-07-31T17:46:07.221Z,44.87
2018-07-31T17:47:07.154Z,44.47
2018-07-31T17:48:07.102Z,43.79
2018-07-31T17:49:07.050Z,44.47
2018-07-31T17:50:06.990Z,43.98
2018-07-31T17:51:06.942Z,43.98
2018-07-31T17:52:06.890Z,44.18
2018-07-31T17:53:06.831Z,43.59
2018-07-31T17:54:06.779Z,43.69
2018-07-31T17:55:06.706Z,43.29
2018-07-31T17:56:06.673Z,44.37
2018-07-31T17:57:06.603Z,44.37
2018-07-31T17:58:06.559Z,43.79
2018-07-31T17:59:06.495Z,43.79
2018-07-31T18:00:06.440Z,44.47
2018-07-31T18:01:06.387Z,44.96
2018-07-31T18:02:06.334Z,45.43
2018-07-31T18:03:06.272Z,46.53
2018-07-31T18:04:06.216Z,44.94
2018-07-31T18:05:06.201Z,44.26
2018-07-31T18:06:06.109Z,44.65
2018-07-31T18:07:06.064Z,44.84
2018-07-31T18:08:05.997Z,45.92
2018-07-31T18:09:05.941Z,46.22
2018-07-31T18:10:05.879Z,46.31
2018-07-31T18:11:05.833Z,47.89
2018-07-31T18:12:05.773Z,48.77
2018-07-31T18:13:05.721Z,48.96
2018-07-31T18:14:05.722Z,49.16
2018-07-31T18:15:05.606Z,49.65
2018-07-31T18:16:05.551Z,49.75
2018-07-31T18:17:05.498Z,50.34
2018-07-31T18:18:05.444Z,50.83
2018-07-31T18:19:05.413Z,50.63
2018-07-31T18:20:05.337Z,51.42
2018-07-31T18:21:05.308Z,52.11
2018-07-31T18:22:05.217Z,52.50
2018-07-31T18:23:05.152Z,52.30
2018-07-31T18:24:05.166Z,52.30
2018-07-31T18:25:05.055Z,53.28
2018-07-31T18:26:04.983Z,53.85
2018-07-31T18:27:04.994Z,53.85
2018-07-31T18:28:04.873Z,54.93
2018-07-31T18:29:04.851Z,55.22
2018-07-31T18:30:04.768Z,55.41
2018-07-31T18:31:04.714Z,54.63
2018-07-31T18:32:04.652Z,55.02
2018-07-31T18:33:04.603Z,55.02
2018-07-31T18:34:04.541Z,55.02
2018-07-31T18:35:04.560Z,55.51
2018-07-31T18:36:04.428Z,55.41
2018-07-31T18:37:04.406Z,55.61
2018-07-31T18:38:04.308Z,55.32
2018-07-31T18:39:04.255Z,55.91
2018-07-31T18:40:04.204Z,56.20
2018-07-31T18:41:04.167Z,56.10
2018-07-31T18:42:04.090Z,56.17
2018-07-31T18:43:04.020Z,55.98
2018-07-31T18:44:03.982Z,56.47
2018-07-31T18:45:03.907Z,56.27
2018-07-31T18:46:03.862Z,56.27
2018-07-31T18:47:03.853Z,56.76
2018-07-31T18:48:03.748Z,56.96
2018-07-31T18:49:03.706Z,56.86
2018-07-31T18:50:03.644Z,56.57
2018-07-31T18:51:03.574Z,57.06
2018-07-31T18:52:03.518Z,57.22
2018-07-31T18:53:03.465Z,57.62
2018-07-31T18:54:03.405Z,57.52
2018-07-31T18:55:03.358Z,57.52
2018-07-31T18:56:03.300Z,57.42
2018-07-31T18:57:03.233Z,57.71
2018-07-31T18:58:03.184Z,57.32
2018-07-31T18:59:03.118Z,57.62
2018-07-31T19:00:03.069Z,57.52
2018-07-31T19:01:03.117Z,58.30
2018-07-31T19:02:02.952Z,58.11
2018-07-31T19:03:02.900Z,58.11
2018-07-31T19:04:02.849Z,58.01
2018-07-31T19:05:02.775Z,57.88
2018-07-31T19:06:02.727Z,58.11
2018-07-31T19:07:02.671Z,58.01
2018-07-31T19:08:02.613Z,57.78
2018-07-31T19:09:02.543Z,58.07
2018-07-31T19:10:02.505Z,57.98
2018-07-31T19:11:02.440Z,57.98
2018-07-31T19:12:02.401Z,58.17
2018-07-31T19:13:02.382Z,57.98
2018-07-31T19:14:02.266Z,57.78
2018-07-31T19:15:02.204Z,58.17
2018-07-31T19:16:02.151Z,57.98
2018-07-31T19:17:02.093Z,58.37
2018-07-31T19:18:02.032Z,58.57
2018-07-31T19:19:01.988Z,58.37
2018-07-31T19:20:01.925Z,58.37
2018-07-31T19:21:01.867Z,58.27
2018-07-31T19:22:01.801Z,58.47
2018-07-31T19:23:01.761Z,58.86
2018-07-31T19:24:01.689Z,58.76
2018-07-31T19:25:01.626Z,58.54
2018-07-31T19:26:01.583Z,58.64
2018-07-31T19:27:01.519Z,59.42
2018-07-31T19:28:01.528Z,59.42
2018-07-31T19:29:01.400Z,59.52
2018-07-31T19:30:01.344Z,59.42
2018-07-31T19:31:01.288Z,60.10
2018-07-31T19:32:01.220Z,60.00
2018-07-31T19:33:01.192Z,59.71
2018-07-31T19:34:01.177Z,59.71
2018-07-31T19:35:01.069Z,59.69
2018-07-31T19:36:00.989Z,59.88
2018-07-31T19:37:00.939Z,60.27
2018-07-31T19:38:00.888Z,61.05
2018-07-31T19:39:00.833Z,60.27
2018-07-31T19:40:00.773Z,60.57
2018-07-31T19:41:00.712Z,60.57
2018-07-31T19:42:00.677Z,61.15
2018-07-31T19:43:00.592Z,61.02
2018-07-31T19:44:00.540Z,61.64
2018-07-31T19:45:00.494Z,61.54
2018-07-31T19:46:00.440Z,61.44
2018-07-31T19:47:00.383Z,61.32
2018-07-31T19:48:00.316Z,61.22
2018-07-31T19:49:00.245Z,61.02
2018-07-31T19:50:00.202Z,61.90
2018-07-31T19:51:00.134Z,62.00
2018-07-31T19:52:00.096Z,61.80
2018-07-31T19:53:00.018Z,61.90
2018-07-31T19:53:59.983Z,62.10
2018-07-31T19:55:00.132Z,62.46
2018-07-31T19:55:59.849Z,62.56
2018-07-31T19:56:59.788Z,62.46
2018-07-31T19:57:59.735Z,62.95
2018-07-31T19:58:59.693Z,62.85
2018-07-31T19:59:59.606Z,62.66
2018-07-31T20:00:59.625Z,62.76
2018-07-31T20:01:59.496Z,62.66
2018-07-31T20:02:59.440Z,62.85
2018-07-31T20:03:59.399Z,63.24
2018-07-31T20:04:59.325Z,63.44